CSC6137 ZBTJ-ZBHH
Flight info
| Callsign | CSC6137 |
|---|---|
| Flight time | 0h 56m |
| Altitude | 34100 |
| Route | BOTPU W47 VIGEK W96 UPSUR W69 LUGVU |
| Aircraft | A321/M-SDE3FGHIRWY/LB1 |
Departure
| Time | 2026-05-04 06:40 |
|---|---|
| Airport | Tianjin Binhai International Airport (ZBTJ) |
Arrival
| Time | 2026-05-04 07:36 |
|---|---|
| Airport | Hohhot Baita International Airport (ZBHH) |
| Time | Latitude | Longitude | Altitude | Speed | Heading |
|---|---|---|---|---|---|
| 2026-05-04 05:54 | 39.12678 | 117.35712 | 19 ft | 0 kts | 63° |
| 2026-05-04 06:25 | 39.12677 | 117.35710 | 19 ft | 1 kts | 63° |
| 2026-05-04 06:25 | 39.12669 | 117.35690 | 19 ft | 3 kts | 66° |
| 2026-05-04 06:26 | 39.12661 | 117.35666 | 19 ft | 3 kts | 64° |
| 2026-05-04 06:26 | 39.12653 | 117.35647 | 19 ft | 3 kts | 77° |
| 2026-05-04 06:26 | 39.12652 | 117.35628 | 19 ft | 3 kts | 136° |
| 2026-05-04 06:26 | 39.12668 | 117.35619 | 22 ft | 3 kts | 168° |
| 2026-05-04 06:27 | 39.12686 | 117.35613 | 20 ft | 0 kts | 155° |
| 2026-05-04 06:29 | 39.12682 | 117.35615 | 20 ft | 2 kts | 155° |
| 2026-05-04 06:29 | 39.12652 | 117.35632 | 19 ft | 7 kts | 158° |
| 2026-05-04 06:30 | 39.12592 | 117.35641 | 19 ft | 10 kts | 181° |
| 2026-05-04 06:30 | 39.12508 | 117.35635 | 19 ft | 14 kts | 183° |
| 2026-05-04 06:30 | 39.12419 | 117.35627 | 19 ft | 6 kts | 185° |
| 2026-05-04 06:30 | 39.12379 | 117.35602 | 19 ft | 8 kts | 228° |
| 2026-05-04 06:31 | 39.12348 | 117.35528 | 21 ft | 11 kts | 244° |
| 2026-05-04 06:31 | 39.12311 | 117.35425 | 19 ft | 14 kts | 245° |
| 2026-05-04 06:31 | 39.12265 | 117.35299 | 19 ft | 17 kts | 245° |
| 2026-05-04 06:31 | 39.12220 | 117.35179 | 21 ft | 13 kts | 250° |
| 2026-05-04 06:32 | 39.12237 | 117.35124 | 21 ft | 8 kts | 326° |
| 2026-05-04 06:33 | 39.13166 | 117.34554 | 20 ft | 24 kts | 334° |
| 2026-05-04 06:34 | 39.13316 | 117.34462 | 19 ft | 24 kts | 334° |
| 2026-05-04 06:34 | 39.13467 | 117.34370 | 20 ft | 24 kts | 334° |
| 2026-05-04 06:34 | 39.13618 | 117.34278 | 19 ft | 24 kts | 334° |
| 2026-05-04 06:34 | 39.13769 | 117.34185 | 20 ft | 24 kts | 334° |
| 2026-05-04 06:35 | 39.13920 | 117.34093 | 19 ft | 24 kts | 335° |
| 2026-05-04 06:36 | 39.14039 | 117.33645 | 19 ft | 8 kts | 195° |
| 2026-05-04 06:37 | 39.13996 | 117.33660 | 20 ft | 0 kts | 154° |
| 2026-05-04 06:38 | 39.13982 | 117.33668 | 21 ft | 13 kts | 154° |
| 2026-05-04 06:38 | 39.13666 | 117.33861 | 23 ft | 85 kts | 155° |
| 2026-05-04 06:40 | 39.06078 | 117.38563 | 2362 ft | 227 kts | 159° |
| 2026-05-04 06:40 | 39.04599 | 117.39455 | 2923 ft | 236 kts | 159° |
| 2026-05-04 06:40 | 39.03110 | 117.40366 | 3610 ft | 239 kts | 158° |
| 2026-05-04 06:40 | 39.01597 | 117.41295 | 4283 ft | 243 kts | 158° |
| 2026-05-04 06:41 | 39.00043 | 117.42247 | 4856 ft | 250 kts | 159° |
| 2026-05-04 06:41 | 38.98424 | 117.43189 | 5262 ft | 263 kts | 168° |
| 2026-05-04 06:41 | 38.96605 | 117.43243 | 5658 ft | 265 kts | 199° |
| 2026-05-04 06:41 | 38.94978 | 117.42164 | 6221 ft | 267 kts | 224° |
| 2026-05-04 06:42 | 38.93901 | 117.40243 | 6759 ft | 268 kts | 251° |
| 2026-05-04 06:42 | 38.93632 | 117.37912 | 7422 ft | 265 kts | 278° |
| 2026-05-04 06:42 | 38.94224 | 117.35688 | 8002 ft | 268 kts | 305° |
| 2026-05-04 06:44 | 39.04418 | 117.23164 | 10679 ft | 345 kts | 317° |
| 2026-05-04 06:44 | 39.06182 | 117.21012 | 11086 ft | 353 kts | 317° |
| 2026-05-04 06:44 | 39.07972 | 117.18827 | 11668 ft | 357 kts | 317° |
| 2026-05-04 06:45 | 39.09760 | 117.16645 | 12258 ft | 360 kts | 317° |
| 2026-05-04 06:45 | 39.11761 | 117.14630 | 12651 ft | 362 kts | 328° |
| 2026-05-04 06:45 | 39.13999 | 117.13181 | 12736 ft | 362 kts | 339° |
| 2026-05-04 06:45 | 39.16383 | 117.12136 | 12740 ft | 362 kts | 341° |
| 2026-05-04 06:46 | 39.18744 | 117.11110 | 12731 ft | 361 kts | 341° |
| 2026-05-04 06:46 | 39.21131 | 117.10063 | 12734 ft | 362 kts | 340° |
| 2026-05-04 06:46 | 39.23514 | 117.09008 | 12894 ft | 366 kts | 340° |
| 2026-05-04 06:46 | 39.25919 | 117.07935 | 13585 ft | 367 kts | 340° |
| 2026-05-04 06:48 | 39.43635 | 117.02537 | 17481 ft | 388 kts | 1° |
| 2026-05-04 06:48 | 39.46343 | 117.02645 | 18032 ft | 390 kts | 1° |
| 2026-05-04 06:49 | 39.49077 | 117.02745 | 18506 ft | 393 kts | 1° |
| 2026-05-04 06:50 | 39.68702 | 117.02696 | 19612 ft | 413 kts | 353° |
| 2026-05-04 06:51 | 39.71584 | 117.02254 | 19606 ft | 419 kts | 353° |
| 2026-05-04 06:51 | 39.74486 | 117.01820 | 19610 ft | 420 kts | 353° |
| 2026-05-04 06:51 | 39.77356 | 117.01395 | 19605 ft | 421 kts | 353° |
| 2026-05-04 06:51 | 39.80309 | 117.00958 | 19606 ft | 422 kts | 353° |
| 2026-05-04 06:52 | 39.83218 | 117.00525 | 19600 ft | 421 kts | 353° |
| 2026-05-04 06:52 | 39.86157 | 117.00086 | 19611 ft | 426 kts | 353° |
| 2026-05-04 06:52 | 39.89039 | 116.99656 | 19603 ft | 424 kts | 353° |
| 2026-05-04 06:52 | 39.91997 | 116.99017 | 19594 ft | 425 kts | 345° |
| 2026-05-04 06:53 | 39.94735 | 116.97731 | 19595 ft | 424 kts | 335° |
| 2026-05-04 06:53 | 39.97285 | 116.95783 | 19596 ft | 426 kts | 323° |
| 2026-05-04 06:53 | 39.99452 | 116.93074 | 19597 ft | 427 kts | 310° |
| 2026-05-04 06:53 | 40.00998 | 116.89845 | 19596 ft | 429 kts | 296° |
| 2026-05-04 06:54 | 40.01969 | 116.86166 | 19585 ft | 430 kts | 287° |
| 2026-05-04 06:54 | 40.02766 | 116.82395 | 19590 ft | 430 kts | 287° |
| 2026-05-04 06:54 | 40.03572 | 116.78628 | 19591 ft | 431 kts | 287° |
| 2026-05-04 06:54 | 40.04382 | 116.74869 | 19588 ft | 431 kts | 287° |
| 2026-05-04 06:55 | 40.05195 | 116.71110 | 19588 ft | 431 kts | 287° |
| 2026-05-04 06:55 | 40.06009 | 116.67336 | 19586 ft | 431 kts | 287° |
| 2026-05-04 06:55 | 40.06816 | 116.63582 | 19579 ft | 431 kts | 287° |
| 2026-05-04 06:55 | 40.07624 | 116.59810 | 19573 ft | 430 kts | 287° |
| 2026-05-04 06:56 | 40.08427 | 116.56043 | 19576 ft | 430 kts | 287° |
| 2026-05-04 06:57 | 40.11351 | 116.29324 | 19571 ft | 435 kts | 260° |
| 2026-05-04 06:58 | 40.10746 | 116.25443 | 19559 ft | 435 kts | 260° |
| 2026-05-04 06:58 | 40.10351 | 116.22882 | 19559 ft | 435 kts | 261° |
| 2026-05-04 06:58 | 40.09758 | 116.19005 | 19563 ft | 434 kts | 260° |
| 2026-05-04 06:58 | 40.09167 | 116.15145 | 19562 ft | 434 kts | 260° |
| 2026-05-04 06:59 | 40.08641 | 116.11720 | 19561 ft | 434 kts | 260° |
| 2026-05-04 06:59 | 40.08065 | 116.08000 | 19560 ft | 434 kts | 261° |
| 2026-05-04 06:59 | 40.07466 | 116.04139 | 19561 ft | 434 kts | 261° |
| 2026-05-04 06:59 | 40.06867 | 116.00274 | 19563 ft | 434 kts | 261° |
| 2026-05-04 07:01 | 40.02635 | 115.73262 | 19551 ft | 434 kts | 260° |
| 2026-05-04 07:01 | 40.02022 | 115.69398 | 19552 ft | 435 kts | 261° |
| 2026-05-04 07:02 | 40.01411 | 115.65543 | 19556 ft | 435 kts | 261° |
| 2026-05-04 07:02 | 40.00797 | 115.61682 | 19553 ft | 434 kts | 260° |
| 2026-05-04 07:02 | 40.00183 | 115.57823 | 19572 ft | 435 kts | 260° |
| 2026-05-04 07:02 | 39.99565 | 115.53956 | 19576 ft | 434 kts | 260° |
| 2026-05-04 07:03 | 39.98956 | 115.50101 | 19573 ft | 434 kts | 262° |
| 2026-05-04 07:03 | 39.98658 | 115.46258 | 19569 ft | 431 kts | 271° |
| 2026-05-04 07:03 | 39.98788 | 115.42371 | 19574 ft | 430 kts | 276° |
| 2026-05-04 07:03 | 39.99001 | 115.38486 | 19567 ft | 430 kts | 275° |
| 2026-05-04 07:04 | 39.99210 | 115.34602 | 19561 ft | 430 kts | 276° |
| 2026-05-04 07:04 | 39.99411 | 115.30711 | 19576 ft | 429 kts | 275° |
| 2026-05-04 07:04 | 39.99608 | 115.26829 | 19594 ft | 428 kts | 276° |
| 2026-05-04 07:04 | 39.99803 | 115.22957 | 19594 ft | 428 kts | 276° |
| 2026-05-04 07:05 | 40.00000 | 115.19090 | 19581 ft | 426 kts | 275° |
| 2026-05-04 07:05 | 40.00194 | 115.15234 | 19588 ft | 427 kts | 276° |
| 2026-05-04 07:05 | 40.00385 | 115.11372 | 19563 ft | 426 kts | 276° |
| 2026-05-04 07:05 | 40.00579 | 115.07522 | 19560 ft | 426 kts | 275° |
| 2026-05-04 07:06 | 40.00965 | 114.99805 | 19537 ft | 426 kts | 275° |
| 2026-05-04 07:06 | 40.01154 | 114.95946 | 19536 ft | 426 kts | 275° |
| 2026-05-04 07:06 | 40.01341 | 114.92093 | 19533 ft | 426 kts | 275° |
| 2026-05-04 07:07 | 40.01529 | 114.88221 | 19532 ft | 426 kts | 275° |
| 2026-05-04 07:08 | 40.02803 | 114.61179 | 19522 ft | 427 kts | 275° |
| 2026-05-04 07:09 | 40.02974 | 114.57313 | 19520 ft | 427 kts | 275° |
| 2026-05-04 07:09 | 40.03144 | 114.53450 | 19517 ft | 427 kts | 275° |
| 2026-05-04 07:09 | 40.03315 | 114.49577 | 19515 ft | 427 kts | 275° |
| 2026-05-04 07:09 | 40.03485 | 114.45713 | 19516 ft | 427 kts | 275° |
| 2026-05-04 07:10 | 40.03655 | 114.41849 | 19521 ft | 427 kts | 275° |
| 2026-05-04 07:10 | 40.03824 | 114.37979 | 19509 ft | 427 kts | 275° |
| 2026-05-04 07:12 | 40.06143 | 114.11355 | 19522 ft | 421 kts | 296° |
| 2026-05-04 07:12 | 40.07510 | 114.07975 | 19529 ft | 420 kts | 300° |
| 2026-05-04 07:12 | 40.08915 | 114.04638 | 19528 ft | 420 kts | 300° |
| 2026-05-04 07:12 | 40.10315 | 114.01284 | 19523 ft | 420 kts | 299° |
| 2026-05-04 07:13 | 40.11709 | 113.97916 | 19519 ft | 421 kts | 299° |
| 2026-05-04 07:13 | 40.13085 | 113.94537 | 19516 ft | 421 kts | 298° |
| 2026-05-04 07:13 | 40.14453 | 113.91149 | 19524 ft | 421 kts | 298° |
| 2026-05-04 07:14 | 40.19923 | 113.77590 | 19524 ft | 421 kts | 298° |
| 2026-05-04 07:14 | 40.21287 | 113.74203 | 19526 ft | 421 kts | 298° |
| 2026-05-04 07:15 | 40.22650 | 113.70811 | 19542 ft | 420 kts | 298° |
| 2026-05-04 07:15 | 40.24008 | 113.67427 | 19538 ft | 421 kts | 298° |
| 2026-05-04 07:15 | 40.25370 | 113.64035 | 19541 ft | 420 kts | 298° |
| 2026-05-04 07:15 | 40.26734 | 113.60666 | 19545 ft | 419 kts | 299° |
| 2026-05-04 07:16 | 40.28111 | 113.57297 | 19547 ft | 419 kts | 298° |
| 2026-05-04 07:16 | 40.29488 | 113.53938 | 19544 ft | 419 kts | 299° |
| 2026-05-04 07:16 | 40.30869 | 113.50567 | 19529 ft | 419 kts | 298° |
| 2026-05-04 07:16 | 40.32245 | 113.47198 | 19541 ft | 419 kts | 299° |
| 2026-05-04 07:17 | 40.33615 | 113.43830 | 19548 ft | 419 kts | 299° |
| 2026-05-04 07:17 | 40.34979 | 113.40466 | 19542 ft | 418 kts | 298° |
| 2026-05-04 07:17 | 40.36344 | 113.37100 | 19540 ft | 418 kts | 299° |
| 2026-05-04 07:17 | 40.37710 | 113.33730 | 19537 ft | 418 kts | 298° |
| 2026-05-04 07:18 | 40.39070 | 113.30366 | 19546 ft | 418 kts | 298° |
| 2026-05-04 07:18 | 40.40427 | 113.27004 | 19560 ft | 417 kts | 298° |
| 2026-05-04 07:18 | 40.41786 | 113.23633 | 19555 ft | 417 kts | 298° |
| 2026-05-04 07:18 | 40.43138 | 113.20275 | 19534 ft | 417 kts | 298° |
| 2026-05-04 07:19 | 40.44495 | 113.16904 | 19538 ft | 417 kts | 298° |
| 2026-05-04 07:19 | 40.45848 | 113.13535 | 19554 ft | 417 kts | 298° |
| 2026-05-04 07:19 | 40.47200 | 113.10160 | 19565 ft | 417 kts | 298° |
| 2026-05-04 07:19 | 40.48545 | 113.06797 | 19541 ft | 414 kts | 298° |
| 2026-05-04 07:20 | 40.49881 | 113.03448 | 19559 ft | 418 kts | 298° |
| 2026-05-04 07:20 | 40.51227 | 113.00066 | 19538 ft | 414 kts | 298° |
| 2026-05-04 07:20 | 40.52555 | 112.96719 | 19568 ft | 410 kts | 299° |
| 2026-05-04 07:20 | 40.53879 | 112.93385 | 19566 ft | 413 kts | 298° |
| 2026-05-04 07:22 | 40.59950 | 112.69039 | 16823 ft | 399 kts | 276° |
| 2026-05-04 07:22 | 40.60098 | 112.66410 | 16544 ft | 392 kts | 276° |
| 2026-05-04 07:23 | 40.60262 | 112.63051 | 16050 ft | 386 kts | 276° |
| 2026-05-04 07:23 | 40.60409 | 112.60021 | 15597 ft | 381 kts | 275° |
| 2026-05-04 07:23 | 40.60597 | 112.56610 | 15095 ft | 377 kts | 275° |
| 2026-05-04 07:23 | 40.60778 | 112.53185 | 14566 ft | 373 kts | 275° |
| 2026-05-04 07:24 | 40.60948 | 112.49794 | 14039 ft | 369 kts | 275° |
| 2026-05-04 07:24 | 40.61111 | 112.46446 | 13484 ft | 365 kts | 276° |
| 2026-05-04 07:24 | 40.61250 | 112.43133 | 12909 ft | 361 kts | 274° |
| 2026-05-04 07:24 | 40.61339 | 112.39851 | 12345 ft | 358 kts | 273° |
| 2026-05-04 07:25 | 40.61402 | 112.36590 | 11763 ft | 355 kts | 272° |
| 2026-05-04 07:26 | 40.68325 | 112.21669 | 10262 ft | 255 kts | 332° |
| 2026-05-04 07:27 | 40.69946 | 112.20798 | 10138 ft | 247 kts | 333° |
| 2026-05-04 07:27 | 40.71510 | 112.19957 | 10026 ft | 238 kts | 332° |
| 2026-05-04 07:27 | 40.73002 | 112.19153 | 9919 ft | 226 kts | 331° |
| 2026-05-04 07:27 | 40.74427 | 112.18381 | 9818 ft | 220 kts | 332° |
| 2026-05-04 07:28 | 40.75846 | 112.17607 | 9708 ft | 221 kts | 331° |
| 2026-05-04 07:28 | 40.77266 | 112.16831 | 9572 ft | 221 kts | 330° |
| 2026-05-04 07:28 | 40.78691 | 112.16054 | 9436 ft | 221 kts | 331° |
| 2026-05-04 07:28 | 40.80122 | 112.15273 | 9299 ft | 223 kts | 332° |
| 2026-05-04 07:29 | 40.81562 | 112.14491 | 9056 ft | 223 kts | 332° |
| 2026-05-04 07:29 | 40.83002 | 112.13733 | 8751 ft | 225 kts | 336° |
| 2026-05-04 07:29 | 40.84456 | 112.13137 | 8435 ft | 217 kts | 337° |
| 2026-05-04 07:29 | 40.85886 | 112.12567 | 8155 ft | 208 kts | 338° |
| 2026-05-04 07:30 | 40.87259 | 112.12022 | 7863 ft | 203 kts | 338° |
| 2026-05-04 07:30 | 40.88598 | 112.11484 | 7562 ft | 198 kts | 336° |
| 2026-05-04 07:30 | 40.89740 | 112.10610 | 7294 ft | 187 kts | 311° |
| 2026-05-04 07:30 | 40.90453 | 112.09284 | 7155 ft | 168 kts | 290° |
| 2026-05-04 07:31 | 40.90710 | 112.07834 | 7040 ft | 158 kts | 272° |
| 2026-05-04 07:31 | 40.90570 | 112.06425 | 6854 ft | 154 kts | 254° |
| 2026-05-04 07:33 | 40.88370 | 111.96990 | 5501 ft | 156 kts | 251° |
| 2026-05-04 07:33 | 40.88044 | 111.95596 | 5287 ft | 160 kts | 253° |
| 2026-05-04 07:33 | 40.87727 | 111.94239 | 5089 ft | 151 kts | 252° |
| 2026-05-04 07:33 | 40.87420 | 111.92926 | 4874 ft | 149 kts | 251° |
| 2026-05-04 07:34 | 40.87116 | 111.91628 | 4635 ft | 148 kts | 251° |
| 2026-05-04 07:34 | 40.86810 | 111.90333 | 4506 ft | 147 kts | 250° |
| 2026-05-04 07:34 | 40.86515 | 111.89074 | 4394 ft | 138 kts | 251° |
| 2026-05-04 07:34 | 40.86217 | 111.87784 | 4167 ft | 152 kts | 251° |
| 2026-05-04 07:35 | 40.85904 | 111.86463 | 3923 ft | 151 kts | 250° |
| 2026-05-04 07:35 | 40.85603 | 111.85153 | 3728 ft | 149 kts | 253° |
| 2026-05-04 07:35 | 40.85291 | 111.83869 | 3552 ft | 138 kts | 252° |
| 2026-05-04 07:35 | 40.85057 | 111.82833 | 3547 ft | 94 kts | 254° |
| 2026-05-04 07:36 | 40.84916 | 111.82229 | 3543 ft | 44 kts | 252° |
| 2026-05-04 07:36 | 40.84834 | 111.81882 | 3544 ft | 37 kts | 252° |
| 2026-05-04 07:38 | 40.84768 | 111.80735 | 3534 ft | 9 kts | 305° |
| 2026-05-04 07:38 | 40.84836 | 111.80698 | 3533 ft | 12 kts | 342° |
| 2026-05-04 07:38 | 40.84923 | 111.80662 | 3532 ft | 14 kts | 343° |
| 2026-05-04 07:38 | 40.84988 | 111.80636 | 3532 ft | 9 kts | 343° |
| 2026-05-04 07:39 | 40.85027 | 111.80685 | 3532 ft | 9 kts | 68° |
| 2026-05-04 07:39 | 40.85048 | 111.80777 | 3532 ft | 11 kts | 75° |
| 2026-05-04 07:39 | 40.85055 | 111.80873 | 3532 ft | 9 kts | 85° |
| 2026-05-04 07:39 | 40.85073 | 111.80958 | 3532 ft | 10 kts | 73° |
| 2026-05-04 07:40 | 40.85102 | 111.81053 | 3532 ft | 12 kts | 64° |
| 2026-05-04 07:40 | 40.85127 | 111.81122 | 3532 ft | 6 kts | 47° |
| 2026-05-04 07:40 | 40.85171 | 111.81120 | 3532 ft | 6 kts | 343° |
| 2026-05-04 07:40 | 40.85185 | 111.81114 | 3532 ft | 2 kts | 341° |
| 2026-05-04 07:41 | 40.85194 | 111.81110 | 3532 ft | 1 kts | 342° |
| 2026-05-04 07:41 | 40.85197 | 111.81109 | 3532 ft | 1 kts | 342° |
| 2026-05-04 07:41 | 40.85198 | 111.81109 | 3532 ft | 0 kts | 342° |